Abbot, Maine
Current Conditions -  °F | °C
As of 12:55 PM on Friday 21 Nov 2014 (Local Time) from KWVL Reporting Station
Few Clouds Few Clouds  
Wind Chill: -7°   Ceiling: Unl
Heat Index: -1°   Visibility: 10mi
Dew Point: -14°   Wind: 16mph
Humidity: 37%   Direction: 290°WNW
Pressure: 29.98"   Gusts: 24mph
Location:  44.94°N, 69.7°W
Report Text: KWVL 211755Z 29014G21KT 10SM FEW049 M01/M14 A2998 RMK AO1 11010 21040 52017
Loading
Personal Weather Stations






























Interactive Weather Map New forecast layout! Learn more

10-Day Weather Forecast

Advertisements
Track Severe Weather on mobile